Terminal Aerodrome Forecast
Issued by NWS

Home | Current Version | Previous Version | Text Only | Print | Product List | Glossary On
Versions: 1 2 3 4 5 6 7 8 9 10 11 12 13 14 15
000
FTUS43 KJKL 271700
TAFSJS
TAF
KSJS 271720Z 2718/2818 19005KT P6SM OVC070
     FM272000 20007KT P6SM OVC040
     FM280500 21007KT 4SM -RA OVC030
     FM281000 VRB04KT 3SM -RA BR OVC010
     FM281300 VRB03KT 3SM -RA BR BKN007 OVC015=

USA.gov is the U.S. government's official web portal to all federal, state and local government web resources and services.